sensor_id;sensor_type;location;lat;lon;timestamp;P1;durP1;ratioP1;P2;durP2;ratioP2
25319;SDS011;13256;49.012;8.610;2023-02-21T00:00:50;9.77;;;3.20;;
25319;SDS011;13256;49.012;8.610;2023-02-21T00:03:36;8.90;;;2.83;;
25319;SDS011;13256;49.012;8.610;2023-02-21T00:06:25;5.38;;;3.58;;
25319;SDS011;13256;49.012;8.610;2023-02-21T00:09:13;5.15;;;2.47;;
25319;SDS011;13256;49.012;8.610;2023-02-21T00:12:01;8.50;;;2.75;;
25319;SDS011;13256;49.012;8.610;2023-02-21T00:14:46;8.77;;;2.60;;
25319;SDS011;13256;49.012;8.610;2023-02-21T00:17:32;5.32;;;2.15;;
25319;SDS011;13256;49.012;8.610;2023-02-21T00:20:20;5.97;;;2.33;;
25319;SDS011;13256;49.012;8.610;2023-02-21T00:26:20;3.30;;;1.95;;
25319;SDS011;13256;49.012;8.610;2023-02-21T00:29:05;5.03;;;2.17;;
25319;SDS011;13256;49.012;8.610;2023-02-21T00:31:52;4.78;;;1.90;;
25319;SDS011;13256;49.012;8.610;2023-02-21T00:34:44;6.30;;;2.30;;
25319;SDS011;13256;49.012;8.610;2023-02-21T00:37:29;6.88;;;2.30;;
25319;SDS011;13256;49.012;8.610;2023-02-21T00:40:24;3.88;;;1.88;;
25319;SDS011;13256;49.012;8.610;2023-02-21T00:44:05;7.25;;;2.00;;
25319;SDS011;13256;49.012;8.610;2023-02-21T00:46:51;4.30;;;2.05;;
25319;SDS011;13256;49.012;8.610;2023-02-21T00:49:39;5.03;;;1.90;;
25319;SDS011;13256;49.012;8.610;2023-02-21T00:52:31;4.43;;;2.10;;
25319;SDS011;13256;49.012;8.610;2023-02-21T00:55:41;4.43;;;2.22;;
25319;SDS011;13256;49.012;8.610;2023-02-21T00:58:33;10.73;;;3.53;;
25319;SDS011;13256;49.012;8.610;2023-02-21T01:01:21;9.02;;;3.08;;
25319;SDS011;13256;49.012;8.610;2023-02-21T01:04:10;12.90;;;3.78;;
25319;SDS011;13256;49.012;8.610;2023-02-21T01:06:56;5.40;;;3.10;;
25319;SDS011;13256;49.012;8.610;2023-02-21T01:09:41;8.80;;;3.47;;
25319;SDS011;13256;49.012;8.610;2023-02-21T01:12:26;5.53;;;3.00;;
25319;SDS011;13256;49.012;8.610;2023-02-21T01:15:23;6.22;;;3.60;;
25319;SDS011;13256;49.012;8.610;2023-02-21T01:18:08;5.68;;;2.97;;
25319;SDS011;13256;49.012;8.610;2023-02-21T01:21:13;5.38;;;2.75;;
25319;SDS011;13256;49.012;8.610;2023-02-21T01:24:07;7.47;;;3.20;;
25319;SDS011;13256;49.012;8.610;2023-02-21T01:26:59;9.15;;;3.13;;
25319;SDS011;13256;49.012;8.610;2023-02-21T01:29:47;9.77;;;3.40;;
25319;SDS011;13256;49.012;8.610;2023-02-21T01:32:37;6.97;;;2.90;;
25319;SDS011;13256;49.012;8.610;2023-02-21T01:35:26;3.50;;;2.35;;
25319;SDS011;13256;49.012;8.610;2023-02-21T01:38:11;5.90;;;2.15;;
25319;SDS011;13256;49.012;8.610;2023-02-21T01:41:00;7.20;;;2.80;;
25319;SDS011;13256;49.012;8.610;2023-02-21T01:43:59;3.90;;;2.20;;
25319;SDS011;13256;49.012;8.610;2023-02-21T01:46:48;5.20;;;2.00;;
25319;SDS011;13256;49.012;8.610;2023-02-21T01:49:34;3.30;;;1.83;;
25319;SDS011;13256;49.012;8.610;2023-02-21T01:52:22;6.07;;;2.28;;
25319;SDS011;13256;49.012;8.610;2023-02-21T01:55:09;4.70;;;2.28;;
25319;SDS011;13256;49.012;8.610;2023-02-21T01:57:55;5.57;;;2.20;;
25319;SDS011;13256;49.012;8.610;2023-02-21T02:00:41;3.17;;;1.83;;
25319;SDS011;13256;49.012;8.610;2023-02-21T02:03:27;3.25;;;2.22;;
25319;SDS011;13256;49.012;8.610;2023-02-21T02:06:15;4.78;;;2.42;;
25319;SDS011;13256;49.012;8.610;2023-02-21T02:09:15;5.90;;;2.65;;
25319;SDS011;13256;49.012;8.610;2023-02-21T02:12:29;4.90;;;2.25;;
25319;SDS011;13256;49.012;8.610;2023-02-21T02:32:35;6.57;;;2.03;;
25319;SDS011;13256;49.012;8.610;2023-02-21T02:43:52;4.47;;;2.20;;
25319;SDS011;13256;49.012;8.610;2023-02-21T02:46:27;3.10;;;1.95;;
25319;SDS011;13256;49.012;8.610;2023-02-21T02:49:01;5.05;;;2.40;;
25319;SDS011;13256;49.012;8.610;2023-02-21T02:51:35;7.07;;;3.00;;
25319;SDS011;13256;49.012;8.610;2023-02-21T02:54:08;4.15;;;2.35;;
25319;SDS011;13256;49.012;8.610;2023-02-21T02:56:36;5.53;;;2.13;;
25319;SDS011;13256;49.012;8.610;2023-02-21T02:59:11;3.33;;;2.10;;
25319;SDS011;13256;49.012;8.610;2023-02-21T03:08:29;5.68;;;2.72;;
25319;SDS011;13256;49.012;8.610;2023-02-21T03:25:56;5.22;;;2.75;;
25319;SDS011;13256;49.012;8.610;2023-02-21T03:31:19;9.63;;;2.78;;
25319;SDS011;13256;49.012;8.610;2023-02-21T03:33:53;6.30;;;2.45;;
25319;SDS011;13256;49.012;8.610;2023-02-21T03:36:20;5.72;;;3.00;;
25319;SDS011;13256;49.012;8.610;2023-02-21T03:38:48;3.85;;;2.78;;
25319;SDS011;13256;49.012;8.610;2023-02-21T03:41:15;3.22;;;2.05;;
25319;SDS011;13256;49.012;8.610;2023-02-21T03:43:42;3.22;;;2.10;;
25319;SDS011;13256;49.012;8.610;2023-02-21T03:46:15;5.25;;;2.28;;
25319;SDS011;13256;49.012;8.610;2023-02-21T03:48:43;5.35;;;2.08;;
25319;SDS011;13256;49.012;8.610;2023-02-21T03:51:18;4.82;;;2.30;;
25319;SDS011;13256;49.012;8.610;2023-02-21T03:53:50;3.78;;;1.90;;
25319;SDS011;13256;49.012;8.610;2023-02-21T03:56:23;2.90;;;2.00;;
25319;SDS011;13256;49.012;8.610;2023-02-21T03:59:28;6.45;;;2.30;;
25319;SDS011;13256;49.012;8.610;2023-02-21T04:01:58;3.38;;;2.20;;
25319;SDS011;13256;49.012;8.610;2023-02-21T04:04:27;4.27;;;2.50;;
25319;SDS011;13256;49.012;8.610;2023-02-21T04:07:04;4.78;;;2.25;;
25319;SDS011;13256;49.012;8.610;2023-02-21T04:09:32;5.25;;;2.00;;
25319;SDS011;13256;49.012;8.610;2023-02-21T04:12:11;4.10;;;2.20;;
25319;SDS011;13256;49.012;8.610;2023-02-21T04:14:39;5.47;;;2.78;;
25319;SDS011;13256;49.012;8.610;2023-02-21T04:17:10;7.75;;;2.83;;
25319;SDS011;13256;49.012;8.610;2023-02-21T04:19:42;7.53;;;2.80;;
25319;SDS011;13256;49.012;8.610;2023-02-21T04:22:11;5.88;;;3.00;;
25319;SDS011;13256;49.012;8.610;2023-02-21T04:24:40;3.03;;;2.42;;
25319;SDS011;13256;49.012;8.610;2023-02-21T04:27:07;7.13;;;2.35;;
25319;SDS011;13256;49.012;8.610;2023-02-21T04:29:37;8.10;;;2.83;;
25319;SDS011;13256;49.012;8.610;2023-02-21T04:35:05;9.10;;;2.97;;
25319;SDS011;13256;49.012;8.610;2023-02-21T04:37:32;17.17;;;5.38;;
25319;SDS011;13256;49.012;8.610;2023-02-21T04:40:01;13.52;;;6.25;;
25319;SDS011;13256;49.012;8.610;2023-02-21T04:42:37;8.23;;;3.70;;
25319;SDS011;13256;49.012;8.610;2023-02-21T04:45:04;10.45;;;3.35;;
25319;SDS011;13256;49.012;8.610;2023-02-21T04:47:38;4.97;;;3.10;;
25319;SDS011;13256;49.012;8.610;2023-02-21T04:50:11;2.40;;;2.00;;
25319;SDS011;13256;49.012;8.610;2023-02-21T04:52:38;9.27;;;2.40;;
25319;SDS011;13256;49.012;8.610;2023-02-21T04:55:08;3.67;;;2.00;;
25319;SDS011;13256;49.012;8.610;2023-02-21T04:57:40;4.95;;;2.10;;
25319;SDS011;13256;49.012;8.610;2023-02-21T05:00:14;4.75;;;1.98;;
25319;SDS011;13256;49.012;8.610;2023-02-21T05:02:41;15.60;;;2.80;;
25319;SDS011;13256;49.012;8.610;2023-02-21T05:05:11;6.28;;;4.00;;
25319;SDS011;13256;49.012;8.610;2023-02-21T05:07:40;6.75;;;3.65;;
25319;SDS011;13256;49.012;8.610;2023-02-21T05:10:08;6.82;;;3.72;;
25319;SDS011;13256;49.012;8.610;2023-02-21T05:12:36;9.63;;;4.32;;
25319;SDS011;13256;49.012;8.610;2023-02-21T05:15:13;8.48;;;4.53;;
25319;SDS011;13256;49.012;8.610;2023-02-21T05:18:16;4.47;;;2.60;;
25319;SDS011;13256;49.012;8.610;2023-02-21T05:20:57;3.88;;;2.67;;
25319;SDS011;13256;49.012;8.610;2023-02-21T05:23:31;6.85;;;3.78;;
25319;SDS011;13256;49.012;8.610;2023-02-21T05:26:11;6.53;;;3.42;;
25319;SDS011;13256;49.012;8.610;2023-02-21T05:28:39;7.55;;;3.75;;
25319;SDS011;13256;49.012;8.610;2023-02-21T05:31:33;8.32;;;3.63;;
25319;SDS011;13256;49.012;8.610;2023-02-21T05:34:03;9.67;;;3.70;;
25319;SDS011;13256;49.012;8.610;2023-02-21T05:36:32;9.63;;;4.18;;
25319;SDS011;13256;49.012;8.610;2023-02-21T05:39:06;9.85;;;4.22;;
25319;SDS011;13256;49.012;8.610;2023-02-21T05:41:34;10.77;;;4.82;;
25319;SDS011;13256;49.012;8.610;2023-02-21T05:44:03;9.60;;;4.93;;
25319;SDS011;13256;49.012;8.610;2023-02-21T05:46:32;11.73;;;4.70;;
25319;SDS011;13256;49.012;8.610;2023-02-21T05:49:04;11.05;;;4.20;;
25319;SDS011;13256;49.012;8.610;2023-02-21T05:51:36;14.93;;;5.60;;
25319;SDS011;13256;49.012;8.610;2023-02-21T05:54:15;42.85;;;13.93;;
25319;SDS011;13256;49.012;8.610;2023-02-21T05:56:44;28.55;;;10.43;;
25319;SDS011;13256;49.012;8.610;2023-02-21T06:02:09;22.83;;;8.55;;
25319;SDS011;13256;49.012;8.610;2023-02-21T06:04:40;20.50;;;7.75;;
25319;SDS011;13256;49.012;8.610;2023-02-21T06:07:07;10.75;;;5.50;;
25319;SDS011;13256;49.012;8.610;2023-02-21T06:14:57;16.98;;;8.02;;
25319;SDS011;13256;49.012;8.610;2023-02-21T06:17:28;14.07;;;7.30;;
25319;SDS011;13256;49.012;8.610;2023-02-21T06:19:59;17.98;;;7.88;;
25319;SDS011;13256;49.012;8.610;2023-02-21T06:22:30;31.67;;;10.93;;
25319;SDS011;13256;49.012;8.610;2023-02-21T06:24:57;37.38;;;12.30;;
25319;SDS011;13256;49.012;8.610;2023-02-21T06:27:24;39.65;;;15.65;;
25319;SDS011;13256;49.012;8.610;2023-02-21T06:29:51;40.50;;;15.38;;
25319;SDS011;13256;49.012;8.610;2023-02-21T06:32:18;42.22;;;15.60;;
25319;SDS011;13256;49.012;8.610;2023-02-21T06:34:48;52.80;;;18.02;;
25319;SDS011;13256;49.012;8.610;2023-02-21T06:39:46;58.63;;;16.25;;
25319;SDS011;13256;49.012;8.610;2023-02-21T06:42:27;60.85;;;16.05;;
25319;SDS011;13256;49.012;8.610;2023-02-21T06:44:55;22.35;;;8.20;;
25319;SDS011;13256;49.012;8.610;2023-02-21T06:47:22;18.25;;;7.45;;
25319;SDS011;13256;49.012;8.610;2023-02-21T06:55:39;34.00;;;10.60;;
25319;SDS011;13256;49.012;8.610;2023-02-21T06:58:06;39.35;;;12.70;;
25319;SDS011;13256;49.012;8.610;2023-02-21T07:00:33;50.15;;;15.55;;
25319;SDS011;13256;49.012;8.610;2023-02-21T07:02:59;52.17;;;15.45;;
25319;SDS011;13256;49.012;8.610;2023-02-21T07:05:27;45.17;;;14.40;;
25319;SDS011;13256;49.012;8.610;2023-02-21T07:07:54;40.67;;;13.60;;
25319;SDS011;13256;49.012;8.610;2023-02-21T07:10:21;36.78;;;12.45;;
25319;SDS011;13256;49.012;8.610;2023-02-21T07:12:48;34.45;;;12.25;;
25319;SDS011;13256;49.012;8.610;2023-02-21T07:15:17;29.85;;;10.82;;
25319;SDS011;13256;49.012;8.610;2023-02-21T07:20:14;31.00;;;10.88;;
25319;SDS011;13256;49.012;8.610;2023-02-21T07:22:45;26.33;;;11.30;;
25319;SDS011;13256;49.012;8.610;2023-02-21T07:25:15;25.77;;;10.23;;
25319;SDS011;13256;49.012;8.610;2023-02-21T07:27:45;20.48;;;9.43;;
25319;SDS011;13256;49.012;8.610;2023-02-21T07:30:15;18.15;;;9.45;;
25319;SDS011;13256;49.012;8.610;2023-02-21T07:32:44;24.73;;;12.57;;
25319;SDS011;13256;49.012;8.610;2023-02-21T07:35:13;28.50;;;14.45;;
25319;SDS011;13256;49.012;8.610;2023-02-21T07:37:40;21.92;;;12.80;;
25319;SDS011;13256;49.012;8.610;2023-02-21T07:40:16;25.17;;;12.05;;
25319;SDS011;13256;49.012;8.610;2023-02-21T07:42:48;15.63;;;7.47;;
25319;SDS011;13256;49.012;8.610;2023-02-21T07:45:17;15.45;;;6.72;;
25319;SDS011;13256;49.012;8.610;2023-02-21T07:47:46;14.88;;;6.82;;
25319;SDS011;13256;49.012;8.610;2023-02-21T07:50:14;21.17;;;9.35;;
25319;SDS011;13256;49.012;8.610;2023-02-21T07:52:44;17.75;;;7.90;;
25319;SDS011;13256;49.012;8.610;2023-02-21T07:58:11;19.60;;;9.45;;
25319;SDS011;13256;49.012;8.610;2023-02-21T08:00:38;17.70;;;8.70;;
25319;SDS011;13256;49.012;8.610;2023-02-21T08:03:10;14.75;;;7.75;;
25319;SDS011;13256;49.012;8.610;2023-02-21T08:14:02;16.17;;;8.82;;
25319;SDS011;13256;49.012;8.610;2023-02-21T08:22:28;18.73;;;7.95;;
25319;SDS011;13256;49.012;8.610;2023-02-21T08:24:55;31.75;;;10.93;;
25319;SDS011;13256;49.012;8.610;2023-02-21T08:33:22;14.73;;;5.25;;
25319;SDS011;13256;49.012;8.610;2023-02-21T08:38:19;7.15;;;3.70;;
25319;SDS011;13256;49.012;8.610;2023-02-21T08:40:46;8.20;;;3.85;;
25319;SDS011;13256;49.012;8.610;2023-02-21T08:43:13;12.73;;;5.70;;
25319;SDS011;13256;49.012;8.610;2023-02-21T08:45:41;9.02;;;4.45;;
25319;SDS011;13256;49.012;8.610;2023-02-21T08:48:13;18.42;;;6.20;;
25319;SDS011;13256;49.012;8.610;2023-02-21T08:50:39;10.57;;;3.95;;
25319;SDS011;13256;49.012;8.610;2023-02-21T08:53:06;10.10;;;4.32;;
25319;SDS011;13256;49.012;8.610;2023-02-21T08:55:33;6.70;;;3.10;;
25319;SDS011;13256;49.012;8.610;2023-02-21T08:58:00;15.95;;;6.40;;
25319;SDS011;13256;49.012;8.610;2023-02-21T09:06:28;6.18;;;3.50;;
25319;SDS011;13256;49.012;8.610;2023-02-21T09:14:44;8.18;;;3.42;;
25319;SDS011;13256;49.012;8.610;2023-02-21T09:17:11;6.80;;;2.78;;
25319;SDS011;13256;49.012;8.610;2023-02-21T09:19:42;5.28;;;2.60;;
25319;SDS011;13256;49.012;8.610;2023-02-21T09:22:12;7.93;;;3.05;;
25319;SDS011;13256;49.012;8.610;2023-02-21T09:27:26;6.72;;;3.35;;
25319;SDS011;13256;49.012;8.610;2023-02-21T09:32:46;7.03;;;3.38;;
25319;SDS011;13256;49.012;8.610;2023-02-21T09:35:14;5.45;;;3.03;;
25319;SDS011;13256;49.012;8.610;2023-02-21T09:37:42;7.10;;;3.65;;
25319;SDS011;13256;49.012;8.610;2023-02-21T09:40:20;9.75;;;4.00;;
25319;SDS011;13256;49.012;8.610;2023-02-21T09:42:52;6.82;;;3.80;;
25319;SDS011;13256;49.012;8.610;2023-02-21T09:48:04;6.53;;;2.95;;
25319;SDS011;13256;49.012;8.610;2023-02-21T09:50:46;7.22;;;3.83;;
25319;SDS011;13256;49.012;8.610;2023-02-21T09:53:17;12.85;;;4.85;;
25319;SDS011;13256;49.012;8.610;2023-02-21T10:17:50;6.80;;;3.65;;
25319;SDS011;13256;49.012;8.610;2023-02-21T10:20:40;6.22;;;3.75;;
25319;SDS011;13256;49.012;8.610;2023-02-21T10:23:40;8.30;;;3.55;;
25319;SDS011;13256;49.012;8.610;2023-02-21T10:26:20;9.85;;;4.03;;
25319;SDS011;13256;49.012;8.610;2023-02-21T10:28:53;9.15;;;4.13;;
25319;SDS011;13256;49.012;8.610;2023-02-21T10:31:26;9.32;;;3.85;;
25319;SDS011;13256;49.012;8.610;2023-02-21T10:36:53;7.38;;;4.18;;
25319;SDS011;13256;49.012;8.610;2023-02-21T10:45:15;8.10;;;3.97;;
25319;SDS011;13256;49.012;8.610;2023-02-21T10:50:41;9.00;;;4.53;;
25319;SDS011;13256;49.012;8.610;2023-02-21T10:55:39;9.15;;;3.50;;
25319;SDS011;13256;49.012;8.610;2023-02-21T10:58:09;6.68;;;4.07;;
25319;SDS011;13256;49.012;8.610;2023-02-21T11:00:59;8.77;;;3.80;;
25319;SDS011;13256;49.012;8.610;2023-02-21T11:18:24;8.77;;;3.53;;
25319;SDS011;13256;49.012;8.610;2023-02-21T11:20:51;8.45;;;3.22;;
25319;SDS011;13256;49.012;8.610;2023-02-21T11:23:23;7.00;;;3.10;;
25319;SDS011;13256;49.012;8.610;2023-02-21T11:25:57;10.00;;;3.45;;
25319;SDS011;13256;49.012;8.610;2023-02-21T11:28:46;7.07;;;3.45;;
25319;SDS011;13256;49.012;8.610;2023-02-21T11:31:17;9.82;;;3.25;;
25319;SDS011;13256;49.012;8.610;2023-02-21T11:36:41;5.38;;;2.78;;
25319;SDS011;13256;49.012;8.610;2023-02-21T11:45:00;10.70;;;3.20;;
25319;SDS011;13256;49.012;8.610;2023-02-21T11:47:42;5.47;;;2.80;;
25319;SDS011;13256;49.012;8.610;2023-02-21T11:50:23;5.18;;;2.40;;
25319;SDS011;13256;49.012;8.610;2023-02-21T11:53:03;6.18;;;2.78;;
25319;SDS011;13256;49.012;8.610;2023-02-21T11:55:37;4.43;;;2.80;;
25319;SDS011;13256;49.012;8.610;2023-02-21T12:00:49;4.22;;;2.22;;
25319;SDS011;13256;49.012;8.610;2023-02-21T12:18:40;5.35;;;2.13;;
25319;SDS011;13256;49.012;8.610;2023-02-21T12:24:33;3.95;;;1.92;;
25319;SDS011;13256;49.012;8.610;2023-02-21T12:54:18;4.13;;;1.40;;
25319;SDS011;13256;49.012;8.610;2023-02-21T12:56:54;2.47;;;1.38;;
25319;SDS011;13256;49.012;8.610;2023-02-21T12:59:45;2.40;;;1.17;;
25319;SDS011;13256;49.012;8.610;2023-02-21T13:02:33;2.72;;;1.30;;
25319;SDS011;13256;49.012;8.610;2023-02-21T13:08:25;5.63;;;1.25;;
25319;SDS011;13256;49.012;8.610;2023-02-21T13:11:13;2.05;;;1.25;;
25319;SDS011;13256;49.012;8.610;2023-02-21T13:13:43;2.28;;;1.20;;
25319;SDS011;13256;49.012;8.610;2023-02-21T13:16:13;6.00;;;1.90;;
25319;SDS011;13256;49.012;8.610;2023-02-21T13:18:45;1.38;;;0.73;;
25319;SDS011;13256;49.012;8.610;2023-02-21T13:33:00;2.95;;;1.48;;
25319;SDS011;13256;49.012;8.610;2023-02-21T13:35:46;3.00;;;1.73;;
25319;SDS011;13256;49.012;8.610;2023-02-21T13:38:17;3.28;;;1.42;;
25319;SDS011;13256;49.012;8.610;2023-02-21T13:43:31;3.13;;;1.50;;
25319;SDS011;13256;49.012;8.610;2023-02-21T14:11:35;3.50;;;1.50;;
25319;SDS011;13256;49.012;8.610;2023-02-21T14:14:28;3.65;;;1.40;;
25319;SDS011;13256;49.012;8.610;2023-02-21T14:17:11;2.53;;;1.25;;
25319;SDS011;13256;49.012;8.610;2023-02-21T14:25:03;1.88;;;1.10;;
25319;SDS011;13256;49.012;8.610;2023-02-21T14:27:41;2.53;;;1.40;;
25319;SDS011;13256;49.012;8.610;2023-02-21T14:33:36;3.15;;;1.45;;
25319;SDS011;13256;49.012;8.610;2023-02-21T14:35:45;1.70;;;1.10;;
25319;SDS011;13256;49.012;8.610;2023-02-21T14:38:31;2.50;;;0.95;;
25319;SDS011;13256;49.012;8.610;2023-02-21T14:41:13;5.57;;;0.93;;
25319;SDS011;13256;49.012;8.610;2023-02-21T14:59:11;3.58;;;1.10;;
25319;SDS011;13256;49.012;8.610;2023-02-21T15:02:24;2.88;;;1.13;;
25319;SDS011;13256;49.012;8.610;2023-02-21T15:08:15;2.08;;;1.00;;
25319;SDS011;13256;49.012;8.610;2023-02-21T15:16:43;2.65;;;1.00;;
25319;SDS011;13256;49.012;8.610;2023-02-21T15:19:42;2.35;;;0.95;;
25319;SDS011;13256;49.012;8.610;2023-02-21T15:22:23;2.25;;;1.00;;
25319;SDS011;13256;49.012;8.610;2023-02-21T15:30:19;1.88;;;1.00;;
25319;SDS011;13256;49.012;8.610;2023-02-21T15:32:54;3.85;;;1.58;;
25319;SDS011;13256;49.012;8.610;2023-02-21T15:35:52;3.13;;;1.30;;
25319;SDS011;13256;49.012;8.610;2023-02-21T15:44:11;1.27;;;1.00;;
25319;SDS011;13256;49.012;8.610;2023-02-21T15:46:52;2.58;;;1.38;;
25319;SDS011;13256;49.012;8.610;2023-02-21T15:49:37;4.55;;;1.30;;
25319;SDS011;13256;49.012;8.610;2023-02-21T15:52:28;1.40;;;1.10;;
25319;SDS011;13256;49.012;8.610;2023-02-21T15:57:59;5.50;;;1.08;;
25319;SDS011;13256;49.012;8.610;2023-02-21T16:03:41;3.83;;;1.70;;
25319;SDS011;13256;49.012;8.610;2023-02-21T16:06:24;8.20;;;2.53;;
25319;SDS011;13256;49.012;8.610;2023-02-21T16:08:58;2.37;;;1.77;;
25319;SDS011;13256;49.012;8.610;2023-02-21T16:11:37;2.00;;;1.20;;
25319;SDS011;13256;49.012;8.610;2023-02-21T16:14:21;2.20;;;1.15;;
25319;SDS011;13256;49.012;8.610;2023-02-21T16:28:37;2.58;;;1.48;;
25319;SDS011;13256;49.012;8.610;2023-02-21T16:31:05;3.47;;;1.40;;
25319;SDS011;13256;49.012;8.610;2023-02-21T16:33:34;3.53;;;2.05;;
25319;SDS011;13256;49.012;8.610;2023-02-21T16:36:06;5.93;;;3.03;;
25319;SDS011;13256;49.012;8.610;2023-02-21T16:38:38;24.92;;;13.07;;
25319;SDS011;13256;49.012;8.610;2023-02-21T16:41:10;39.63;;;23.92;;
25319;SDS011;13256;49.012;8.610;2023-02-21T16:43:42;26.15;;;14.20;;
25319;SDS011;13256;49.012;8.610;2023-02-21T16:46:25;20.75;;;10.18;;
25319;SDS011;13256;49.012;8.610;2023-02-21T16:54:39;17.67;;;8.88;;
25319;SDS011;13256;49.012;8.610;2023-02-21T16:57:06;20.38;;;10.00;;
25319;SDS011;13256;49.012;8.610;2023-02-21T17:02:25;14.90;;;7.65;;
25319;SDS011;13256;49.012;8.610;2023-02-21T17:10:18;18.10;;;7.97;;
25319;SDS011;13256;49.012;8.610;2023-02-21T17:18:06;24.58;;;11.00;;
25319;SDS011;13256;49.012;8.610;2023-02-21T17:23:36;27.17;;;11.48;;
25319;SDS011;13256;49.012;8.610;2023-02-21T17:28:51;38.10;;;17.45;;
25319;SDS011;13256;49.012;8.610;2023-02-21T17:31:43;24.05;;;11.48;;
25319;SDS011;13256;49.012;8.610;2023-02-21T17:37:22;31.73;;;14.02;;
25319;SDS011;13256;49.012;8.610;2023-02-21T17:39:53;30.83;;;13.75;;
25319;SDS011;13256;49.012;8.610;2023-02-21T17:45:32;32.40;;;13.65;;
25319;SDS011;13256;49.012;8.610;2023-02-21T17:47:59;27.15;;;11.85;;
25319;SDS011;13256;49.012;8.610;2023-02-21T17:50:31;40.37;;;15.73;;
25319;SDS011;13256;49.012;8.610;2023-02-21T17:52:59;33.83;;;15.57;;
25319;SDS011;13256;49.012;8.610;2023-02-21T17:55:27;31.25;;;14.05;;
25319;SDS011;13256;49.012;8.610;2023-02-21T17:57:58;39.00;;;18.20;;
25319;SDS011;13256;49.012;8.610;2023-02-21T18:00:30;29.60;;;11.40;;
25319;SDS011;13256;49.012;8.610;2023-02-21T18:03:00;24.05;;;8.13;;
25319;SDS011;13256;49.012;8.610;2023-02-21T18:05:32;19.73;;;8.63;;
25319;SDS011;13256;49.012;8.610;2023-02-21T18:08:01;9.40;;;4.88;;
25319;SDS011;13256;49.012;8.610;2023-02-21T18:10:30;8.82;;;4.13;;
25319;SDS011;13256;49.012;8.610;2023-02-21T18:15:59;14.52;;;4.82;;
25319;SDS011;13256;49.012;8.610;2023-02-21T18:18:26;10.27;;;5.32;;
25319;SDS011;13256;49.012;8.610;2023-02-21T18:20:53;18.75;;;6.78;;
25319;SDS011;13256;49.012;8.610;2023-02-21T18:23:27;15.40;;;7.07;;
25319;SDS011;13256;49.012;8.610;2023-02-21T18:26:04;18.73;;;8.45;;
25319;SDS011;13256;49.012;8.610;2023-02-21T18:28:35;21.10;;;9.93;;
25319;SDS011;13256;49.012;8.610;2023-02-21T18:31:03;22.88;;;10.07;;
25319;SDS011;13256;49.012;8.610;2023-02-21T18:33:30;30.77;;;14.80;;
25319;SDS011;13256;49.012;8.610;2023-02-21T18:35:57;26.85;;;13.82;;
25319;SDS011;13256;49.012;8.610;2023-02-21T18:41:18;18.10;;;9.73;;
25319;SDS011;13256;49.012;8.610;2023-02-21T18:43:51;14.65;;;9.05;;
25319;SDS011;13256;49.012;8.610;2023-02-21T18:46:21;20.33;;;9.48;;
25319;SDS011;13256;49.012;8.610;2023-02-21T18:51:44;61.17;;;25.33;;
25319;SDS011;13256;49.012;8.610;2023-02-21T18:54:11;45.13;;;18.10;;
25319;SDS011;13256;49.012;8.610;2023-02-21T18:56:37;43.53;;;20.10;;
25319;SDS011;13256;49.012;8.610;2023-02-21T19:02:07;30.40;;;14.55;;
25319;SDS011;13256;49.012;8.610;2023-02-21T19:04:37;24.13;;;12.27;;
25319;SDS011;13256;49.012;8.610;2023-02-21T19:07:05;28.80;;;12.63;;
25319;SDS011;13256;49.012;8.610;2023-02-21T19:09:34;17.48;;;9.55;;
25319;SDS011;13256;49.012;8.610;2023-02-21T19:12:05;12.25;;;6.25;;
25319;SDS011;13256;49.012;8.610;2023-02-21T19:14:33;11.82;;;6.78;;
25319;SDS011;13256;49.012;8.610;2023-02-21T19:17:00;9.90;;;6.18;;
25319;SDS011;13256;49.012;8.610;2023-02-21T19:19:27;14.43;;;7.15;;
25319;SDS011;13256;49.012;8.610;2023-02-21T19:21:57;10.93;;;6.22;;
25319;SDS011;13256;49.012;8.610;2023-02-21T19:24:27;17.00;;;6.10;;
25319;SDS011;13256;49.012;8.610;2023-02-21T19:26:54;16.65;;;6.60;;
25319;SDS011;13256;49.012;8.610;2023-02-21T19:29:28;12.63;;;5.43;;
25319;SDS011;13256;49.012;8.610;2023-02-21T19:31:54;22.77;;;9.50;;
25319;SDS011;13256;49.012;8.610;2023-02-21T19:34:26;30.10;;;11.82;;
25319;SDS011;13256;49.012;8.610;2023-02-21T19:36:53;25.15;;;10.90;;
25319;SDS011;13256;49.012;8.610;2023-02-21T19:39:24;28.75;;;10.35;;
25319;SDS011;13256;49.012;8.610;2023-02-21T19:41:50;25.08;;;9.27;;
25319;SDS011;13256;49.012;8.610;2023-02-21T19:44:18;20.40;;;7.85;;
25319;SDS011;13256;49.012;8.610;2023-02-21T19:46:47;17.50;;;6.32;;
25319;SDS011;13256;49.012;8.610;2023-02-21T19:49:15;13.35;;;6.65;;
25319;SDS011;13256;49.012;8.610;2023-02-21T19:51:46;11.90;;;5.22;;
25319;SDS011;13256;49.012;8.610;2023-02-21T19:54:20;5.82;;;3.03;;
25319;SDS011;13256;49.012;8.610;2023-02-21T19:56:49;5.80;;;3.05;;
25319;SDS011;13256;49.012;8.610;2023-02-21T19:59:18;5.30;;;2.40;;
25319;SDS011;13256;49.012;8.610;2023-02-21T20:01:46;6.35;;;3.80;;
25319;SDS011;13256;49.012;8.610;2023-02-21T20:04:15;12.93;;;4.05;;
25319;SDS011;13256;49.012;8.610;2023-02-21T20:06:44;7.15;;;3.90;;
25319;SDS011;13256;49.012;8.610;2023-02-21T20:09:12;8.73;;;4.72;;
25319;SDS011;13256;49.012;8.610;2023-02-21T20:11:40;8.00;;;3.83;;
25319;SDS011;13256;49.012;8.610;2023-02-21T20:14:08;10.10;;;3.50;;
25319;SDS011;13256;49.012;8.610;2023-02-21T20:16:40;7.32;;;3.38;;
25319;SDS011;13256;49.012;8.610;2023-02-21T20:19:08;11.65;;;4.93;;
25319;SDS011;13256;49.012;8.610;2023-02-21T20:21:38;12.05;;;6.35;;
25319;SDS011;13256;49.012;8.610;2023-02-21T20:24:05;14.73;;;6.72;;
25319;SDS011;13256;49.012;8.610;2023-02-21T20:26:32;21.60;;;8.60;;
25319;SDS011;13256;49.012;8.610;2023-02-21T20:29:02;21.88;;;7.88;;
25319;SDS011;13256;49.012;8.610;2023-02-21T20:31:30;25.48;;;9.70;;
25319;SDS011;13256;49.012;8.610;2023-02-21T20:34:00;37.83;;;13.48;;
25319;SDS011;13256;49.012;8.610;2023-02-21T20:36:35;141.88;;;57.42;;
25319;SDS011;13256;49.012;8.610;2023-02-21T20:39:04;97.68;;;38.28;;
25319;SDS011;13256;49.012;8.610;2023-02-21T20:41:34;93.82;;;30.60;;
25319;SDS011;13256;49.012;8.610;2023-02-21T20:44:09;67.65;;;21.95;;
25319;SDS011;13256;49.012;8.610;2023-02-21T20:46:37;43.05;;;15.98;;
25319;SDS011;13256;49.012;8.610;2023-02-21T20:52:02;35.17;;;10.40;;
25319;SDS011;13256;49.012;8.610;2023-02-21T20:54:36;20.55;;;7.82;;
25319;SDS011;13256;49.012;8.610;2023-02-21T20:57:04;20.85;;;7.47;;
25319;SDS011;13256;49.012;8.610;2023-02-21T20:59:32;14.02;;;4.72;;
25319;SDS011;13256;49.012;8.610;2023-02-21T21:02:01;10.95;;;3.65;;
25319;SDS011;13256;49.012;8.610;2023-02-21T21:04:38;7.38;;;2.92;;
25319;SDS011;13256;49.012;8.610;2023-02-21T21:07:17;10.80;;;3.05;;
25319;SDS011;13256;49.012;8.610;2023-02-21T21:09:51;13.05;;;4.60;;
25319;SDS011;13256;49.012;8.610;2023-02-21T21:12:22;21.00;;;7.55;;
25319;SDS011;13256;49.012;8.610;2023-02-21T21:14:49;26.45;;;10.85;;
25319;SDS011;13256;49.012;8.610;2023-02-21T21:17:20;24.83;;;9.75;;
25319;SDS011;13256;49.012;8.610;2023-02-21T21:19:51;24.15;;;8.38;;
25319;SDS011;13256;49.012;8.610;2023-02-21T21:22:22;20.45;;;8.23;;
25319;SDS011;13256;49.012;8.610;2023-02-21T21:24:51;19.13;;;7.75;;
25319;SDS011;13256;49.012;8.610;2023-02-21T21:27:20;37.20;;;14.93;;
25319;SDS011;13256;49.012;8.610;2023-02-21T21:29:54;29.58;;;11.68;;
25319;SDS011;13256;49.012;8.610;2023-02-21T21:32:21;24.48;;;11.23;;
25319;SDS011;13256;49.012;8.610;2023-02-21T21:34:57;35.92;;;11.52;;
25319;SDS011;13256;49.012;8.610;2023-02-21T21:37:29;26.38;;;11.25;;
25319;SDS011;13256;49.012;8.610;2023-02-21T21:42:47;27.35;;;11.40;;
25319;SDS011;13256;49.012;8.610;2023-02-21T21:45:23;24.52;;;11.82;;